Terminal Aerodrome Forecast
Issued by NWS

Home | Current Version | Previous Version | Text Only | Print | Product List | Glossary On
Versions: 1 2 3 4 5 6 7 8 9 10 11 12 13 14 15 16
000
FTUS44 KLUB 272300
TAFCDS
TAF
KCDS 272324Z 2800/2824 14008KT P6SM SCT070 BKN150
     FM281500 20009KT P6SM BKN060 BKN120 PROB30 2818/2824 TSRA
      BKN060CB=

USA.gov is the U.S. government's official web portal to all federal, state and local government web resources and services.